< < Back
Terminal Aerodrome Forecast


Current Version              Previous Versions:   1  2  3  4  5  6  7  8  9  

Terminal Aerodrome Forecast

982
FTUS42 KJAX 270138 AAB
TAFGNV
TAF AMD
KGNV 270138Z 2702/2724 29007KT P6SM SKC
     FM270600 28005KT P6SM SKC WS015/30035KT
     FM271400 27010G18KT P6SM FEW045
     FM271800 28013G23KT P6SM SCT040=

Latest METAR

997
SAUS70 KWBC 270300 RRC
MTRGNV
METAR KGNV 270253Z 31009KT 10SM CLR 08/02 A2996 RMK AO2 SLP144 T00830022
51020


USA.gov is the U.S. government's official web portal to all federal, state and local government web resources and services.